This is the latest recevied weather packets stored in our database for station/object SQ9MHX-13. If no packets are shown the sender has not sent any weather packets the latest 10 day(s).
| Time | Temp. | Humidity | Pressure | Rain* | Wind** | Luminosity | Snow |
|---|---|---|---|---|---|---|---|
| 1777871646 | 15° C | 58% | 965.9 hPa | - | 0 m/s | - | - |
| 1777871049 | 12.78° C | 62% | 967.9 hPa | - | 0 m/s | - | - |
| 1777870751 | 13.89° C | 58% | 968.9 hPa | - | 0 m/s | - | - |
| 1777870452 | 12.78° C | 59% | 969 hPa | - | 0 m/s | - | - |
| 1777870154 | 12.22° C | 66% | 969.1 hPa | - | 0 m/s | - | - |
| 1777869855 | 12.22° C | 65% | 969.8 hPa | - | 0 m/s | - | - |
| 1777869556 | 11.11° C | 68% | 970.4 hPa | - | 0 m/s | - | - |
| 1777869258 | 11.11° C | 66% | 970.5 hPa | - | 0 m/s | - | - |
| 1777868960 | 11.11° C | 66% | 971.1 hPa | - | 0 m/s | - | - |
| 1777868661 | 11.11° C | 63% | 971.2 hPa | - | 0 m/s | - | - |
| 1777868363 | 12.22° C | 64% | 971.8 hPa | - | 0 m/s | - | - |
| 1777868064 | 10° C | 69% | 971.9 hPa | - | 0 m/s | - | - |
| 1777867766 | 11.11° C | 63% | 971.7 hPa | - | 0 m/s | - | - |
| 1777867468 | 12.22° C | 62% | 972.1 hPa | - | 0 m/s | - | - |
| 1777867169 | 11.11° C | 63% | 972.5 hPa | - | 0 m/s | - | - |
| 1777866871 | 10° C | 65% | 972.4 hPa | - | 0 m/s | - | - |
| 1777866572 | 8.89° C | 67% | 972.3 hPa | - | 0 m/s | - | - |
| 1777866274 | 11.11° C | 62% | 972.3 hPa | - | 0 m/s | - | - |
| 1777865976 | 10° C | 64% | 972.8 hPa | - | 0 m/s | - | - |
| 1777865677 | 10° C | 64% | 973.1 hPa | - | 0 m/s | - | - |
| 1777865379 | 10° C | 66% | 973.7 hPa | - | 0 m/s | - | - |
| 1777865081 | 8.89° C | 69% | 974.5 hPa | - | 0 m/s | - | - |
| 1777864782 | 7.78° C | 72% | 975.3 hPa | - | 0 m/s | - | - |
| 1777864484 | 7.78° C | 74% | 976 hPa | - | 0 m/s | - | - |
| 1777864186 | 7.22° C | 76% | 976.5 hPa | - | 0 m/s | - | - |
* Rain since midnight (hover to see other rain measurements)
** Current wind speed in m/s (hover to see current wind gust speed)